sensor_id;sensor_type;location;lat;lon;timestamp;pressure;altitude;pressure_sealevel;temperature;humidity
11440;BME280;5776;51.814;4.510;2023-04-23T00:00:52;100765.06;;;9.75;100.00
11440;BME280;5776;51.814;4.510;2023-04-23T00:03:22;100751.50;;;9.75;100.00
11440;BME280;5776;51.814;4.510;2023-04-23T00:05:50;100751.81;;;9.73;100.00
11440;BME280;5776;51.814;4.510;2023-04-23T00:08:17;100750.47;;;9.71;100.00
11440;BME280;5776;51.814;4.510;2023-04-23T00:10:44;100742.84;;;9.73;100.00
11440;BME280;5776;51.814;4.510;2023-04-23T00:13:10;100751.81;;;9.73;100.00
11440;BME280;5776;51.814;4.510;2023-04-23T00:15:37;100739.31;;;9.72;100.00
11440;BME280;5776;51.814;4.510;2023-04-23T00:18:02;100739.63;;;9.71;100.00
11440;BME280;5776;51.814;4.510;2023-04-23T00:20:28;100736.06;;;9.70;100.00
11440;BME280;5776;51.814;4.510;2023-04-23T00:22:54;100739.31;;;9.72;100.00
11440;BME280;5776;51.814;4.510;2023-04-23T00:25:20;100733.91;;;9.72;100.00
11440;BME280;5776;51.814;4.510;2023-04-23T00:27:46;100736.91;;;9.71;100.00
11440;BME280;5776;51.814;4.510;2023-04-23T00:30:13;100732.28;;;9.71;100.00
11440;BME280;5776;51.814;4.510;2023-04-23T00:32:39;100727.66;;;9.72;100.00
11440;BME280;5776;51.814;4.510;2023-04-23T00:35:06;100721.72;;;9.70;100.00
11440;BME280;5776;51.814;4.510;2023-04-23T00:37:32;100716.81;;;9.72;100.00
11440;BME280;5776;51.814;4.510;2023-04-23T00:39:57;100717.94;;;9.71;100.00
11440;BME280;5776;51.814;4.510;2023-04-23T00:43:05;100714.91;;;9.72;100.00
11440;BME280;5776;51.814;4.510;2023-04-23T00:45:32;100706.25;;;9.70;100.00
11440;BME280;5776;51.814;4.510;2023-04-23T00:47:58;100704.41;;;9.66;100.00
11440;BME280;5776;51.814;4.510;2023-04-23T00:50:25;100712.25;;;9.67;100.00
11440;BME280;5776;51.814;4.510;2023-04-23T00:52:51;100712.78;;;9.69;100.00
11440;BME280;5776;51.814;4.510;2023-04-23T00:55:17;100708.16;;;9.70;100.00
11440;BME280;5776;51.814;4.510;2023-04-23T00:57:45;100705.44;;;9.70;100.00
11440;BME280;5776;51.814;4.510;2023-04-23T01:00:12;100701.13;;;9.69;100.00
11440;BME280;5776;51.814;4.510;2023-04-23T01:02:40;100701.94;;;9.69;100.00
11440;BME280;5776;51.814;4.510;2023-04-23T01:05:08;100704.63;;;9.69;100.00
11440;BME280;5776;51.814;4.510;2023-04-23T01:07:36;100706.81;;;9.67;100.00
11440;BME280;5776;51.814;4.510;2023-04-23T01:10:03;100703.53;;;9.70;100.00
11440;BME280;5776;51.814;4.510;2023-04-23T01:12:30;100700.81;;;9.70;100.00
11440;BME280;5776;51.814;4.510;2023-04-23T01:14:56;100688.38;;;9.69;100.00
11440;BME280;5776;51.814;4.510;2023-04-23T01:17:23;100694.31;;;9.71;100.00
11440;BME280;5776;51.814;4.510;2023-04-23T01:19:49;100692.69;;;9.70;100.00
11440;BME280;5776;51.814;4.510;2023-04-23T01:22:15;100683.47;;;9.71;100.00
11440;BME280;5776;51.814;4.510;2023-04-23T01:24:42;100681.56;;;9.72;100.00
11440;BME280;5776;51.814;4.510;2023-04-23T01:27:08;100685.06;;;9.72;100.00
11440;BME280;5776;51.814;4.510;2023-04-23T01:29:35;100686.72;;;9.73;100.00
11440;BME280;5776;51.814;4.510;2023-04-23T01:32:01;100692.66;;;9.76;100.00
11440;BME280;5776;51.814;4.510;2023-04-23T01:34:29;100692.41;;;9.72;100.00
11440;BME280;5776;51.814;4.510;2023-04-23T01:36:57;100682.94;;;9.69;100.00
11440;BME280;5776;51.814;4.510;2023-04-23T01:39:24;100684.28;;;9.72;100.00
11440;BME280;5776;51.814;4.510;2023-04-23T01:41:52;100684.84;;;9.69;100.00
11440;BME280;5776;51.814;4.510;2023-04-23T01:44:18;100693.78;;;9.69;100.00
11440;BME280;5776;51.814;4.510;2023-04-23T01:46:44;100692.41;;;9.72;100.00
11440;BME280;5776;51.814;4.510;2023-04-23T01:49:10;100683.47;;;9.71;100.00
11440;BME280;5776;51.814;4.510;2023-04-23T01:51:36;100678.09;;;9.66;100.00
11440;BME280;5776;51.814;4.510;2023-04-23T01:54:02;100686.22;;;9.66;100.00
11440;BME280;5776;51.814;4.510;2023-04-23T01:56:28;100691.34;;;9.68;100.00
11440;BME280;5776;51.814;4.510;2023-04-23T01:58:55;100686.22;;;9.66;100.00
11440;BME280;5776;51.814;4.510;2023-04-23T02:01:21;100686.22;;;9.66;100.00
11440;BME280;5776;51.814;4.510;2023-04-23T02:03:50;100688.41;;;9.64;100.00
11440;BME280;5776;51.814;4.510;2023-04-23T02:06:16;100680.84;;;9.61;100.00
11440;BME280;5776;51.814;4.510;2023-04-23T02:08:43;100678.16;;;9.61;100.00
11440;BME280;5776;51.814;4.510;2023-04-23T02:11:08;100675.13;;;9.63;100.00
11440;BME280;5776;51.814;4.510;2023-04-23T02:13:34;100666.72;;;9.64;100.00
11440;BME280;5776;51.814;4.510;2023-04-23T02:16:00;100664.22;;;9.68;100.00
11440;BME280;5776;51.814;4.510;2023-04-23T02:18:26;100669.44;;;9.64;100.00
11440;BME280;5776;51.814;4.510;2023-04-23T02:20:52;100669.72;;;9.63;100.00
11440;BME280;5776;51.814;4.510;2023-04-23T02:23:18;100666.50;;;9.61;100.00
11440;BME280;5776;51.814;4.510;2023-04-23T02:25:44;100665.66;;;9.60;100.00
11440;BME280;5776;51.814;4.510;2023-04-23T02:28:11;100669.44;;;9.64;100.00
11440;BME280;5776;51.814;4.510;2023-04-23T02:30:38;100677.84;;;9.63;100.00
11440;BME280;5776;51.814;4.510;2023-04-23T02:33:10;100671.91;;;9.61;100.00
11440;BME280;5776;51.814;4.510;2023-04-23T02:35:36;100664.59;;;9.61;100.00
11440;BME280;5776;51.814;4.510;2023-04-23T02:38:02;100667.31;;;9.61;100.00
11440;BME280;5776;51.814;4.510;2023-04-23T02:40:29;100666.19;;;9.62;100.00
11440;BME280;5776;51.814;4.510;2023-04-23T02:42:55;100666.19;;;9.62;100.00
11440;BME280;5776;51.814;4.510;2023-04-23T02:45:21;100670.53;;;9.63;100.00
11440;BME280;5776;51.814;4.510;2023-04-23T02:47:47;100651.84;;;9.62;100.00
11440;BME280;5776;51.814;4.510;2023-04-23T02:50:13;100655.66;;;9.61;100.00
11440;BME280;5776;51.814;4.510;2023-04-23T02:52:39;100660.78;;;9.62;100.00
11440;BME280;5776;51.814;4.510;2023-04-23T02:55:06;100659.97;;;9.62;100.00
11440;BME280;5776;51.814;4.510;2023-04-23T02:57:33;100661.88;;;9.61;100.00
11440;BME280;5776;51.814;4.510;2023-04-23T02:59:59;100665.16;;;9.58;100.00
11440;BME280;5776;51.814;4.510;2023-04-23T03:02:25;100662.72;;;9.57;100.00
11440;BME280;5776;51.814;4.510;2023-04-23T03:04:51;100664.34;;;9.58;100.00
11440;BME280;5776;51.814;4.510;2023-04-23T03:07:17;100658.09;;;9.57;100.00
11440;BME280;5776;51.814;4.510;2023-04-23T03:09:42;100650.56;;;9.54;100.00
11440;BME280;5776;51.814;4.510;2023-04-23T03:12:08;100649.75;;;9.54;100.00
11440;BME280;5776;51.814;4.510;2023-04-23T03:14:34;100650.56;;;9.54;100.00
11440;BME280;5776;51.814;4.510;2023-04-23T03:17:00;100648.94;;;9.53;100.00
11440;BME280;5776;51.814;4.510;2023-04-23T03:19:26;100647.31;;;9.52;100.00
11440;BME280;5776;51.814;4.510;2023-04-23T03:21:52;100642.47;;;9.49;100.00
11440;BME280;5776;51.814;4.510;2023-04-23T03:24:18;100645.72;;;9.51;100.00
11440;BME280;5776;51.814;4.510;2023-04-23T03:26:44;100645.72;;;9.51;100.00
11440;BME280;5776;51.814;4.510;2023-04-23T03:29:09;100648.47;;;9.46;100.00
11440;BME280;5776;51.814;4.510;2023-04-23T03:31:35;100654.97;;;9.45;100.00
11440;BME280;5776;51.814;4.510;2023-04-23T03:34:01;100647.94;;;9.44;100.00
11440;BME280;5776;51.814;4.510;2023-04-23T03:36:28;100644.97;;;9.40;100.00
11440;BME280;5776;51.814;4.510;2023-04-23T03:38:54;100652.81;;;9.42;100.00
11440;BME280;5776;51.814;4.510;2023-04-23T03:41:20;100660.44;;;9.40;100.00
11440;BME280;5776;51.814;4.510;2023-04-23T03:43:46;100655.00;;;9.40;100.00
11440;BME280;5776;51.814;4.510;2023-04-23T03:46:11;100653.41;;;9.39;100.00
11440;BME280;5776;51.814;4.510;2023-04-23T03:48:37;100653.41;;;9.39;100.00
11440;BME280;5776;51.814;4.510;2023-04-23T03:51:03;100666.66;;;9.40;100.00
11440;BME280;5776;51.814;4.510;2023-04-23T03:53:29;100658.28;;;9.37;100.00
11440;BME280;5776;51.814;4.510;2023-04-23T03:55:55;100659.41;;;9.36;100.00
11440;BME280;5776;51.814;4.510;2023-04-23T03:58:21;100653.97;;;9.36;100.00
11440;BME280;5776;51.814;4.510;2023-04-23T04:00:47;100650.72;;;9.34;100.00
11440;BME280;5776;51.814;4.510;2023-04-23T04:03:13;100644.50;;;9.33;100.00
11440;BME280;5776;51.814;4.510;2023-04-23T04:05:39;100643.69;;;9.33;100.00
11440;BME280;5776;51.814;4.510;2023-04-23T04:08:04;100641.50;;;9.35;100.00
11440;BME280;5776;51.814;4.510;2023-04-23T04:10:30;100641.50;;;9.35;100.00
11440;BME280;5776;51.814;4.510;2023-04-23T04:12:56;100641.50;;;9.35;100.00
11440;BME280;5776;51.814;4.510;2023-04-23T04:15:22;100642.06;;;9.32;100.00
11440;BME280;5776;51.814;4.510;2023-04-23T04:17:48;100649.09;;;9.33;100.00
11440;BME280;5776;51.814;4.510;2023-04-23T04:20:14;100650.22;;;9.32;100.00
11440;BME280;5776;51.814;4.510;2023-04-23T04:22:40;100654.28;;;9.29;100.00
11440;BME280;5776;51.814;4.510;2023-04-23T04:25:06;100652.38;;;9.29;100.00
11440;BME280;5776;51.814;4.510;2023-04-23T04:27:33;100644.25;;;9.29;100.00
11440;BME280;5776;51.814;4.510;2023-04-23T04:29:59;100644.81;;;9.26;100.00
11440;BME280;5776;51.814;4.510;2023-04-23T04:32:31;100641.84;;;9.28;100.00
11440;BME280;5776;51.814;4.510;2023-04-23T04:34:57;100628.00;;;9.29;100.00
11440;BME280;5776;51.814;4.510;2023-04-23T04:37:23;100637.22;;;9.28;100.00
11440;BME280;5776;51.814;4.510;2023-04-23T04:39:49;100638.31;;;9.27;100.00
11440;BME280;5776;51.814;4.510;2023-04-23T04:42:16;100647.78;;;9.30;100.00
11440;BME280;5776;51.814;4.510;2023-04-23T04:44:42;100651.06;;;9.27;100.00
11440;BME280;5776;51.814;4.510;2023-04-23T04:47:07;100653.22;;;9.25;100.00
11440;BME280;5776;51.814;4.510;2023-04-23T04:49:34;100645.94;;;9.25;100.00
11440;BME280;5776;51.814;4.510;2023-04-23T04:52:00;100653.75;;;9.27;100.00
11440;BME280;5776;51.814;4.510;2023-04-23T04:54:26;100644.03;;;9.26;100.00
11440;BME280;5776;51.814;4.510;2023-04-23T04:56:52;100642.13;;;9.26;100.00
11440;BME280;5776;51.814;4.510;2023-04-23T04:59:18;100647.81;;;9.25;100.00
11440;BME280;5776;51.814;4.510;2023-04-23T05:01:44;100649.72;;;9.24;100.00
11440;BME280;5776;51.814;4.510;2023-04-23T05:04:10;100660.03;;;9.22;100.00
11440;BME280;5776;51.814;4.510;2023-04-23T05:06:36;100660.03;;;9.22;100.00
11440;BME280;5776;51.814;4.510;2023-04-23T05:09:02;100655.94;;;9.25;100.00
11440;BME280;5776;51.814;4.510;2023-04-23T05:11:28;100653.53;;;9.23;100.00
11440;BME280;5776;51.814;4.510;2023-04-23T05:13:55;100650.81;;;9.23;100.00
11440;BME280;5776;51.814;4.510;2023-04-23T05:16:21;100642.69;;;9.23;100.00
11440;BME280;5776;51.814;4.510;2023-04-23T05:18:47;100636.97;;;9.25;100.00
11440;BME280;5776;51.814;4.510;2023-04-23T05:21:14;100646.19;;;9.24;100.00
11440;BME280;5776;51.814;4.510;2023-04-23T05:23:40;100644.03;;;9.26;100.00
11440;BME280;5776;51.814;4.510;2023-04-23T05:26:06;100634.78;;;9.27;100.00
11440;BME280;5776;51.814;4.510;2023-04-23T05:28:32;100639.63;;;9.30;100.00
11440;BME280;5776;51.814;4.510;2023-04-23T05:30:58;100630.44;;;9.31;100.00
11440;BME280;5776;51.814;4.510;2023-04-23T05:33:25;100642.06;;;9.32;100.00
11440;BME280;5776;51.814;4.510;2023-04-23T05:35:51;100642.59;;;9.34;100.00
11440;BME280;5776;51.814;4.510;2023-04-23T05:38:17;100641.22;;;9.36;100.00
11440;BME280;5776;51.814;4.510;2023-04-23T05:40:43;100639.91;;;9.34;100.00
11440;BME280;5776;51.814;4.510;2023-04-23T05:43:09;100639.91;;;9.34;100.00
11440;BME280;5776;51.814;4.510;2023-04-23T05:45:35;100644.22;;;9.35;100.00
11440;BME280;5776;51.814;4.510;2023-04-23T05:48:01;100642.31;;;9.35;100.00
11440;BME280;5776;51.814;4.510;2023-04-23T05:50:27;100639.31;;;9.37;100.00
11440;BME280;5776;51.814;4.510;2023-04-23T05:52:53;100642.84;;;9.37;100.00
11440;BME280;5776;51.814;4.510;2023-04-23T05:55:19;100635.50;;;9.38;100.00
11440;BME280;5776;51.814;4.510;2023-04-23T05:57:45;100631.72;;;9.39;100.00
11440;BME280;5776;51.814;4.510;2023-04-23T06:00:12;100633.03;;;9.41;100.00
11440;BME280;5776;51.814;4.510;2023-04-23T06:02:39;100635.19;;;9.44;100.00
11440;BME280;5776;51.814;4.510;2023-04-23T06:05:06;100626.25;;;9.44;100.00
11440;BME280;5776;51.814;4.510;2023-04-23T06:07:33;100632.69;;;9.48;100.00
11440;BME280;5776;51.814;4.510;2023-04-23T06:09:59;100641.88;;;9.52;100.00
11440;BME280;5776;51.814;4.510;2023-04-23T06:12:25;100634.28;;;9.54;100.00
11440;BME280;5776;51.814;4.510;2023-04-23T06:14:51;100639.13;;;9.57;100.00
11440;BME280;5776;51.814;4.510;2023-04-23T06:17:18;100627.22;;;9.58;100.00
11440;BME280;5776;51.814;4.510;2023-04-23T06:19:44;100634.22;;;9.59;100.00
11440;BME280;5776;51.814;4.510;2023-04-23T06:22:09;100623.91;;;9.61;100.00
11440;BME280;5776;51.814;4.510;2023-04-23T06:24:35;100610.88;;;9.63;100.00
11440;BME280;5776;51.814;4.510;2023-04-23T06:27:01;100621.16;;;9.66;100.00
11440;BME280;5776;51.814;4.510;2023-04-23T06:29:27;100631.69;;;9.68;100.00
11440;BME280;5776;51.814;4.510;2023-04-23T06:31:54;100622.19;;;9.70;100.00
11440;BME280;5776;51.814;4.510;2023-04-23T06:34:23;100614.03;;;9.70;100.00
11440;BME280;5776;51.814;4.510;2023-04-23T06:36:50;100613.50;;;9.73;100.00
11440;BME280;5776;51.814;4.510;2023-04-23T06:39:15;100615.56;;;9.82;100.00
11440;BME280;5776;51.814;4.510;2023-04-23T06:41:42;100611.53;;;9.79;100.00
11440;BME280;5776;51.814;4.510;2023-04-23T06:44:08;100610.41;;;9.80;100.00
11440;BME280;5776;51.814;4.510;2023-04-23T06:46:35;100610.13;;;9.82;100.00
11440;BME280;5776;51.814;4.510;2023-04-23T06:49:01;100608.22;;;9.82;100.00
11440;BME280;5776;51.814;4.510;2023-04-23T06:51:27;100599.81;;;9.84;100.00
11440;BME280;5776;51.814;4.510;2023-04-23T06:53:53;100592.47;;;9.84;100.00
11440;BME280;5776;51.814;4.510;2023-04-23T06:56:19;100601.13;;;9.86;100.00
11440;BME280;5776;51.814;4.510;2023-04-23T06:58:46;100603.25;;;9.89;100.00
11440;BME280;5776;51.814;4.510;2023-04-23T07:01:12;100600.28;;;9.91;100.00
11440;BME280;5776;51.814;4.510;2023-04-23T07:03:38;100599.16;;;9.92;100.00
11440;BME280;5776;51.814;4.510;2023-04-23T07:06:04;100598.53;;;10.00;100.00
11440;BME280;5776;51.814;4.510;2023-04-23T07:08:30;100594.72;;;10.01;100.00
11440;BME280;5776;51.814;4.510;2023-04-23T07:10:56;100602.06;;;10.01;100.00
11440;BME280;5776;51.814;4.510;2023-04-23T07:13:22;100599.03;;;10.02;100.00
11440;BME280;5776;51.814;4.510;2023-04-23T07:15:49;100594.41;;;10.03;100.00
11440;BME280;5776;51.814;4.510;2023-04-23T07:18:14;100589.50;;;10.05;100.00
11440;BME280;5776;51.814;4.510;2023-04-23T07:20:40;100581.91;;;10.07;100.00
11440;BME280;5776;51.814;4.510;2023-04-23T07:23:06;100591.16;;;10.06;100.00
11440;BME280;5776;51.814;4.510;2023-04-23T07:25:32;100595.47;;;10.07;100.00
11440;BME280;5776;51.814;4.510;2023-04-23T07:27:58;100594.06;;;10.09;100.00
11440;BME280;5776;51.814;4.510;2023-04-23T07:30:26;100594.88;;;10.10;100.00
11440;BME280;5776;51.814;4.510;2023-04-23T07:32:53;100597.00;;;10.13;100.00
11440;BME280;5776;51.814;4.510;2023-04-23T07:35:20;100589.38;;;10.15;100.00
11440;BME280;5776;51.814;4.510;2023-04-23T07:37:46;100591.50;;;10.18;100.00
11440;BME280;5776;51.814;4.510;2023-04-23T07:40:12;100587.72;;;10.19;100.00
11440;BME280;5776;51.814;4.510;2023-04-23T07:42:38;100589.03;;;10.22;100.00
11440;BME280;5776;51.814;4.510;2023-04-23T07:45:04;100589.03;;;10.22;100.00
11440;BME280;5776;51.814;4.510;2023-04-23T07:47:30;100583.03;;;10.25;100.00
11440;BME280;5776;51.814;4.510;2023-04-23T07:49:56;100579.75;;;10.28;100.00
11440;BME280;5776;51.814;4.510;2023-04-23T07:52:22;100572.13;;;10.30;100.00
11440;BME280;5776;51.814;4.510;2023-04-23T07:54:48;100569.66;;;10.33;100.00
11440;BME280;5776;51.814;4.510;2023-04-23T07:57:14;100567.44;;;10.35;100.00
11440;BME280;5776;51.814;4.510;2023-04-23T07:59:41;100556.56;;;10.35;100.00
11440;BME280;5776;51.814;4.510;2023-04-23T08:02:07;100550.84;;;10.37;100.00
11440;BME280;5776;51.814;4.510;2023-04-23T08:04:33;100570.06;;;10.41;100.00
11440;BME280;5776;51.814;4.510;2023-04-23T08:06:59;100570.31;;;10.44;100.00
11440;BME280;5776;51.814;4.510;2023-04-23T08:09:25;100565.91;;;10.48;100.00
11440;BME280;5776;51.814;4.510;2023-04-23T08:11:51;100571.28;;;10.53;100.00
11440;BME280;5776;51.814;4.510;2023-04-23T08:14:17;100563.94;;;10.54;100.00
11440;BME280;5776;51.814;4.510;2023-04-23T08:16:43;100567.97;;;10.56;100.00
11440;BME280;5776;51.814;4.510;2023-04-23T08:19:09;100559.75;;;10.62;100.00
11440;BME280;5776;51.814;4.510;2023-04-23T08:21:35;100566.16;;;10.66;100.00
11440;BME280;5776;51.814;4.510;2023-04-23T08:24:01;100567.56;;;10.63;100.00
11440;BME280;5776;51.814;4.510;2023-04-23T08:26:27;100564.28;;;10.66;100.00
11440;BME280;5776;51.814;4.510;2023-04-23T08:28:53;100573.16;;;10.72;100.00
11440;BME280;5776;51.814;4.510;2023-04-23T08:31:19;100571.25;;;10.72;100.00
11440;BME280;5776;51.814;4.510;2023-04-23T08:33:45;100575.28;;;10.75;100.00
11440;BME280;5776;51.814;4.510;2023-04-23T08:36:11;100572.28;;;10.76;100.00
11440;BME280;5776;51.814;4.510;2023-04-23T08:38:37;100567.28;;;10.84;100.00
11440;BME280;5776;51.814;4.510;2023-04-23T08:41:09;100567.19;;;10.89;100.00
11440;BME280;5776;51.814;4.510;2023-04-23T08:46:30;100574.53;;;10.88;100.00
11440;BME280;5776;51.814;4.510;2023-04-23T08:48:58;100575.28;;;10.94;100.00
11440;BME280;5776;51.814;4.510;2023-04-23T08:51:27;100575.38;;;11.02;100.00
11440;BME280;5776;51.814;4.510;2023-04-23T08:53:57;100570.47;;;11.18;100.00
11440;BME280;5776;51.814;4.510;2023-04-23T08:56:30;100564.38;;;11.27;100.00
11440;BME280;5776;51.814;4.510;2023-04-23T08:58:57;100573.56;;;11.44;100.00
11440;BME280;5776;51.814;4.510;2023-04-23T09:01:23;100560.16;;;11.48;100.00
11440;BME280;5776;51.814;4.510;2023-04-23T09:03:49;100559.28;;;11.53;100.00
11440;BME280;5776;51.814;4.510;2023-04-23T09:06:16;100555.03;;;11.60;100.00
11440;BME280;5776;51.814;4.510;2023-04-23T09:08:43;100565.41;;;11.58;100.00
11440;BME280;5776;51.814;4.510;2023-04-23T09:11:09;100559.97;;;11.58;100.00
11440;BME280;5776;51.814;4.510;2023-04-23T09:13:35;100559.59;;;11.65;100.00
11440;BME280;5776;51.814;4.510;2023-04-23T09:16:04;100555.97;;;11.70;100.00
11440;BME280;5776;51.814;4.510;2023-04-23T09:18:30;100566.53;;;11.71;100.00
11440;BME280;5776;51.814;4.510;2023-04-23T09:20:56;100558.66;;;11.83;100.00
11440;BME280;5776;51.814;4.510;2023-04-23T09:23:22;100542.28;;;11.88;100.00
11440;BME280;5776;51.814;4.510;2023-04-23T09:25:48;100553.88;;;11.94;100.00
11440;BME280;5776;51.814;4.510;2023-04-23T09:28:13;100554.28;;;11.87;100.00
11440;BME280;5776;51.814;4.510;2023-04-23T09:30:44;100554.97;;;11.93;100.00
11440;BME280;5776;51.814;4.510;2023-04-23T09:33:11;100547.03;;;11.97;100.00
11440;BME280;5776;51.814;4.510;2023-04-23T09:35:37;100548.13;;;11.96;100.00
11440;BME280;5776;51.814;4.510;2023-04-23T09:38:06;100542.09;;;11.99;100.00
11440;BME280;5776;51.814;4.510;2023-04-23T09:40:32;100543.06;;;12.03;100.00
11440;BME280;5776;51.814;4.510;2023-04-23T09:42:58;100540.56;;;12.06;100.00
11440;BME280;5776;51.814;4.510;2023-04-23T09:45:24;100539.25;;;12.04;100.00
11440;BME280;5776;51.814;4.510;2023-04-23T09:47:55;100535.31;;;12.10;100.00
11440;BME280;5776;51.814;4.510;2023-04-23T09:50:36;100524.41;;;12.10;100.00
11440;BME280;5776;51.814;4.510;2023-04-23T09:53:04;100529.91;;;12.19;100.00
11440;BME280;5776;51.814;4.510;2023-04-23T09:55:31;100520.34;;;12.21;100.00
11440;BME280;5776;51.814;4.510;2023-04-23T09:58:03;100516.22;;;12.24;100.00
11440;BME280;5776;51.814;4.510;2023-04-23T10:00:37;100515.59;;;12.27;100.00
11440;BME280;5776;51.814;4.510;2023-04-23T10:03:03;100518.63;;;12.25;100.00
11440;BME280;5776;51.814;4.510;2023-04-23T10:05:29;100513.38;;;12.29;100.00
11440;BME280;5776;51.814;4.510;2023-04-23T10:07:56;100511.47;;;12.29;100.00
11440;BME280;5776;51.814;4.510;2023-04-23T10:10:24;100511.34;;;12.35;100.00
11440;BME280;5776;51.814;4.510;2023-04-23T10:12:52;100502.84;;;12.36;100.00
11440;BME280;5776;51.814;4.510;2023-04-23T10:15:19;100509.13;;;12.37;100.00
11440;BME280;5776;51.814;4.510;2023-04-23T10:17:46;100498.72;;;12.39;100.00
11440;BME280;5776;51.814;4.510;2023-04-23T10:20:13;100501.63;;;12.42;100.00
11440;BME280;5776;51.814;4.510;2023-04-23T10:22:43;100504.03;;;12.44;100.00
11440;BME280;5776;51.814;4.510;2023-04-23T10:25:10;100506.16;;;12.47;100.00
11440;BME280;5776;51.814;4.510;2023-04-23T10:27:42;100492.66;;;12.42;100.00
11440;BME280;5776;51.814;4.510;2023-04-23T10:30:10;100504.88;;;12.44;100.00
11440;BME280;5776;51.814;4.510;2023-04-23T10:32:36;100492.03;;;12.45;100.00
11440;BME280;5776;51.814;4.510;2023-04-23T10:35:07;100494.75;;;12.45;100.00
11440;BME280;5776;51.814;4.510;2023-04-23T10:37:34;100489.50;;;12.48;100.00
11440;BME280;5776;51.814;4.510;2023-04-23T10:40:06;100483.25;;;12.48;100.00
11440;BME280;5776;51.814;4.510;2023-04-23T10:42:34;100488.56;;;12.53;100.00
11440;BME280;5776;51.814;4.510;2023-04-23T10:45:00;100478.97;;;12.56;100.00
11440;BME280;5776;51.814;4.510;2023-04-23T10:47:27;100477.53;;;12.58;100.00
11440;BME280;5776;51.814;4.510;2023-04-23T10:49:53;100474.53;;;12.60;100.00
11440;BME280;5776;51.814;4.510;2023-04-23T10:52:19;100473.72;;;12.59;100.00
11440;BME280;5776;51.814;4.510;2023-04-23T10:54:56;100468.88;;;12.56;100.00
11440;BME280;5776;51.814;4.510;2023-04-23T10:57:22;100456.38;;;12.55;100.00
11440;BME280;5776;51.814;4.510;2023-04-23T10:59:53;100455.75;;;12.58;100.00
11440;BME280;5776;51.814;4.510;2023-04-23T11:02:22;100462.50;;;12.61;100.00
11440;BME280;5776;51.814;4.510;2023-04-23T11:04:56;100453.09;;;12.67;100.00
11440;BME280;5776;51.814;4.510;2023-04-23T11:07:31;100451.47;;;12.66;100.00
11440;BME280;5776;51.814;4.510;2023-04-23T11:10:11;100441.69;;;12.65;100.00
11440;BME280;5776;51.814;4.510;2023-04-23T11:12:38;100437.56;;;12.67;100.00
11440;BME280;5776;51.814;4.510;2023-04-23T11:15:16;100435.19;;;12.74;100.00
11440;BME280;5776;51.814;4.510;2023-04-23T11:20:17;100428.34;;;12.86;100.00
11440;BME280;5776;51.814;4.510;2023-04-23T11:22:45;100430.13;;;12.90;100.00
11440;BME280;5776;51.814;4.510;2023-04-23T11:25:18;100424.38;;;12.92;100.00
11440;BME280;5776;51.814;4.510;2023-04-23T11:27:46;100418.09;;;12.91;100.00
11440;BME280;5776;51.814;4.510;2023-04-23T11:30:14;100422.31;;;12.97;100.00
11440;BME280;5776;51.814;4.510;2023-04-23T11:32:43;100411.13;;;12.99;100.00
11440;BME280;5776;51.814;4.510;2023-04-23T11:35:12;100403.41;;;13.01;100.00
11440;BME280;5776;51.814;4.510;2023-04-23T11:37:39;100398.94;;;13.05;100.00
11440;BME280;5776;51.814;4.510;2023-04-23T11:40:07;100388.84;;;13.06;100.00
11440;BME280;5776;51.814;4.510;2023-04-23T11:42:51;100382.59;;;13.14;100.00
11440;BME280;5776;51.814;4.510;2023-04-23T11:45:21;100390.78;;;13.14;100.00
11440;BME280;5776;51.814;4.510;2023-04-23T11:47:49;100385.50;;;13.17;100.00
11440;BME280;5776;51.814;4.510;2023-04-23T11:50:17;100386.00;;;13.19;100.00
11440;BME280;5776;51.814;4.510;2023-04-23T11:52:44;100387.09;;;13.18;100.00
11440;BME280;5776;51.814;4.510;2023-04-23T11:55:09;100374.34;;;13.28;100.00
11440;BME280;5776;51.814;4.510;2023-04-23T11:57:40;100375.25;;;13.23;100.00
11440;BME280;5776;51.814;4.510;2023-04-23T12:00:25;100377.34;;;13.17;100.00
11440;BME280;5776;51.814;4.510;2023-04-23T12:02:53;100364.00;;;13.16;100.00
11440;BME280;5776;51.814;4.510;2023-04-23T12:05:26;100371.72;;;13.23;100.00
11440;BME280;5776;51.814;4.510;2023-04-23T12:07:53;100369.16;;;13.26;100.00
11440;BME280;5776;51.814;4.510;2023-04-23T12:10:22;100364.66;;;13.22;100.00
11440;BME280;5776;51.814;4.510;2023-04-23T12:12:52;100357.59;;;13.21;100.00
11440;BME280;5776;51.814;4.510;2023-04-23T12:15:18;100362.13;;;13.25;100.00
11440;BME280;5776;51.814;4.510;2023-04-23T12:17:49;100354.94;;;13.29;100.00
11440;BME280;5776;51.814;4.510;2023-04-23T12:20:20;100357.19;;;13.36;100.00
11440;BME280;5776;51.814;4.510;2023-04-23T12:22:47;100354.31;;;13.32;100.00
11440;BME280;5776;51.814;4.510;2023-04-23T12:25:13;100350.59;;;13.28;100.00
11440;BME280;5776;51.814;4.510;2023-04-23T12:27:40;100345.94;;;13.29;100.00
11440;BME280;5776;51.814;4.510;2023-04-23T12:30:07;100353.31;;;13.28;100.00
11440;BME280;5776;51.814;4.510;2023-04-23T12:32:34;100348.78;;;13.24;100.00
11440;BME280;5776;51.814;4.510;2023-04-23T12:35:00;100358.25;;;13.17;100.00
11440;BME280;5776;51.814;4.510;2023-04-23T12:37:28;100348.28;;;13.13;100.00
11440;BME280;5776;51.814;4.510;2023-04-23T12:39:54;100337.84;;;13.06;100.00
11440;BME280;5776;51.814;4.510;2023-04-23T12:42:23;100343.28;;;13.06;100.00
11440;BME280;5776;51.814;4.510;2023-04-23T12:44:49;100345.22;;;13.06;100.00
11440;BME280;5776;51.814;4.510;2023-04-23T12:47:15;100330.47;;;13.07;100.00
11440;BME280;5776;51.814;4.510;2023-04-23T12:49:44;100329.84;;;13.10;100.00
11440;BME280;5776;51.814;4.510;2023-04-23T12:52:11;100335.44;;;13.13;100.00
11440;BME280;5776;51.814;4.510;2023-04-23T12:54:38;100335.78;;;13.12;100.00
11440;BME280;5776;51.814;4.510;2023-04-23T12:57:07;100328.72;;;13.11;100.00
11440;BME280;5776;51.814;4.510;2023-04-23T12:59:34;100319.72;;;13.10;100.00